createdAt,value
2023-03-27T00:00:13.468Z,60.32
2023-03-27T00:02:41.842Z,59.86
2023-03-27T00:05:10.417Z,60.08
2023-03-27T00:07:41.433Z,60.02
2023-03-27T00:10:10.336Z,60.72
2023-03-27T00:12:39.343Z,62.33
2023-03-27T00:15:08.312Z,61.99
2023-03-27T00:17:37.655Z,61.77
2023-03-27T00:20:08.642Z,61.63
2023-03-27T00:22:36.541Z,61.36
2023-03-27T00:25:05.380Z,60.48
2023-03-27T00:27:33.382Z,62.41
2023-03-27T00:30:01.207Z,61.26
2023-03-27T00:32:29.082Z,61.34
2023-03-27T00:34:57.008Z,60.91
2023-03-27T00:37:24.891Z,61.40
2023-03-27T00:39:52.679Z,61.49
2023-03-27T00:42:23.261Z,61.70
2023-03-27T00:44:52.242Z,62.45
2023-03-27T00:47:33.965Z,62.77
2023-03-27T00:50:06.920Z,62.25
2023-03-27T00:52:37.361Z,64.21
2023-03-27T00:55:10.341Z,63.16
2023-03-27T00:57:38.442Z,62.69
2023-03-27T01:00:13.073Z,62.68
2023-03-27T01:02:44.553Z,63.19
2023-03-27T01:05:13.731Z,62.70
2023-03-27T01:08:00.247Z,62.96
2023-03-27T01:10:42.877Z,63.74
2023-03-27T01:13:54.191Z,63.92
2023-03-27T01:16:49.584Z,63.63
2023-03-27T01:19:29.446Z,64.04
2023-03-27T01:22:33.434Z,65.36
2023-03-27T01:25:04.534Z,66.72
2023-03-27T01:28:17.570Z,66.36
2023-03-27T01:31:21.671Z,65.34
2023-03-27T01:33:49.830Z,64.39
2023-03-27T01:36:39.983Z,65.07
2023-03-27T01:39:28.476Z,66.72
2023-03-27T01:42:23.069Z,66.44
2023-03-27T01:44:58.465Z,65.18
2023-03-27T01:47:32.719Z,64.79
2023-03-27T01:50:33.687Z,65.51
2023-03-27T01:53:57.322Z,65.09
2023-03-27T01:56:37.693Z,64.68
2023-03-27T01:59:18.834Z,64.58
2023-03-27T02:01:56.361Z,64.42
2023-03-27T02:04:29.246Z,64.70
2023-03-27T02:07:05.127Z,64.37
2023-03-27T02:09:39.037Z,64.06
2023-03-27T02:12:12.234Z,64.09
2023-03-27T02:14:46.678Z,64.08
2023-03-27T02:17:18.722Z,65.02
2023-03-27T02:19:53.172Z,65.51
2023-03-27T02:22:37.579Z,65.90
2023-03-27T02:25:36.239Z,65.20
2023-03-27T02:28:38.298Z,64.96
2023-03-27T02:31:32.522Z,64.80
2023-03-27T02:34:15.577Z,64.89
2023-03-27T02:37:05.493Z,65.20
2023-03-27T02:40:14.451Z,65.63
2023-03-27T02:42:58.727Z,65.25
2023-03-27T02:45:57.140Z,66.15
2023-03-27T02:48:49.252Z,65.83
2023-03-27T02:51:31.075Z,66.03
2023-03-27T02:56:44.995Z,66.58
2023-03-27T02:59:25.776Z,66.60
2023-03-27T03:01:55.433Z,66.83
2023-03-27T03:04:33.389Z,66.32
2023-03-27T03:07:06.619Z,67.20
2023-03-27T03:09:40.315Z,67.33
2023-03-27T03:12:10.441Z,67.82
2023-03-27T03:14:46.881Z,67.92
2023-03-27T03:17:16.646Z,67.83
2023-03-27T03:19:46.157Z,68.50
2023-03-27T03:22:14.998Z,68.58
2023-03-27T03:24:43.948Z,68.83
2023-03-27T03:27:15.953Z,68.49
2023-03-27T03:29:50.634Z,68.69
2023-03-27T03:32:26.840Z,67.82
2023-03-27T03:34:57.148Z,67.53
2023-03-27T03:37:28.851Z,68.93
2023-03-27T03:39:58.818Z,68.68
2023-03-27T03:42:26.931Z,67.96
2023-03-27T03:44:54.905Z,68.07
2023-03-27T03:47:24.396Z,68.20
2023-03-27T03:49:52.380Z,68.12
2023-03-27T03:52:21.246Z,67.85
2023-03-27T03:54:49.306Z,68.79
2023-03-27T03:57:17.754Z,68.11
2023-03-27T03:59:55.274Z,67.73
2023-03-27T04:02:45.799Z,67.52
2023-03-27T04:05:17.392Z,67.55
2023-03-27T04:07:45.982Z,67.29
2023-03-27T04:10:27.440Z,66.49
2023-03-27T04:12:56.342Z,66.07
2023-03-27T04:15:28.768Z,67.55
2023-03-27T04:18:16.622Z,66.73
2023-03-27T04:20:50.242Z,66.57
2023-03-27T04:23:20.368Z,66.22
2023-03-27T04:25:49.112Z,66.45
2023-03-27T04:28:22.881Z,66.74
2023-03-27T04:31:06.629Z,66.87
2023-03-27T04:33:53.552Z,68.08
2023-03-27T04:36:42.809Z,68.40
2023-03-27T04:39:13.225Z,67.38
2023-03-27T04:41:41.141Z,66.90
2023-03-27T04:44:09.307Z,68.78
2023-03-27T04:46:41.746Z,68.13
2023-03-27T04:49:12.627Z,67.15
2023-03-27T04:51:51.458Z,66.71
2023-03-27T04:54:23.098Z,67.59
2023-03-27T04:56:53.590Z,67.27
2023-03-27T04:59:22.570Z,66.30
2023-03-27T05:02:13.275Z,64.92
2023-03-27T05:05:02.395Z,64.48
2023-03-27T05:07:37.003Z,64.37
2023-03-27T05:10:07.672Z,61.86
2023-03-27T05:12:36.493Z,63.51
2023-03-27T05:15:06.463Z,64.13
2023-03-27T05:17:42.302Z,63.03
2023-03-27T05:20:15.118Z,63.75
2023-03-27T05:22:44.521Z,63.84
2023-03-27T05:25:39.657Z,64.44
2023-03-27T05:28:12.776Z,64.69
2023-03-27T05:30:42.590Z,65.27
2023-03-27T05:33:17.910Z,63.04
2023-03-27T05:35:48.477Z,62.63
2023-03-27T05:38:17.580Z,61.45
2023-03-27T05:41:10.509Z,60.30
2023-03-27T05:43:45.475Z,60.48
2023-03-27T05:46:21.057Z,59.48
2023-03-27T05:49:02.737Z,59.68
2023-03-27T05:51:31.791Z,59.44
2023-03-27T05:54:00.090Z,58.87
2023-03-27T05:56:48.431Z,58.96
2023-03-27T05:59:17.470Z,58.47
2023-03-27T06:01:49.254Z,58.83
2023-03-27T06:04:24.349Z,58.58
2023-03-27T06:07:02.806Z,56.48
2023-03-27T06:09:32.777Z,55.68
2023-03-27T06:12:33.130Z,55.59
2023-03-27T06:15:11.159Z,54.61
2023-03-27T06:17:47.818Z,54.10
2023-03-27T06:20:16.296Z,54.40
2023-03-27T06:22:53.757Z,53.64
2023-03-27T06:25:34.952Z,54.01
2023-03-27T06:28:07.402Z,52.96
2023-03-27T06:30:42.592Z,52.06
2023-03-27T06:33:47.401Z,51.28
2023-03-27T06:36:29.453Z,51.24
2023-03-27T06:39:00.775Z,50.14
2023-03-27T06:41:31.913Z,49.29
2023-03-27T06:44:22.858Z,47.97
2023-03-27T06:47:14.413Z,45.90
2023-03-27T06:50:11.519Z,44.76
2023-03-27T06:52:39.481Z,44.68
2023-03-27T06:55:32.321Z,46.12
2023-03-27T06:58:02.202Z,45.67
2023-03-27T07:00:37.696Z,46.21
2023-03-27T07:03:20.443Z,45.94
2023-03-27T07:05:54.521Z,46.66
2023-03-27T07:08:25.240Z,46.59
2023-03-27T07:11:11.207Z,46.59
2023-03-27T07:13:46.695Z,46.24
2023-03-27T07:16:22.749Z,45.38
2023-03-27T07:18:51.115Z,42.95
2023-03-27T07:21:19.196Z,39.33
2023-03-27T07:23:47.527Z,36.90
2023-03-27T07:26:21.250Z,31.66
2023-03-27T07:28:55.421Z,29.32
2023-03-27T07:33:55.049Z,29.78
2023-03-27T07:36:31.838Z,32.97
2023-03-27T07:39:06.781Z,37.00
2023-03-27T07:41:36.115Z,37.94
2023-03-27T07:44:24.823Z,37.35
2023-03-27T07:46:58.751Z,37.83
2023-03-27T07:49:39.235Z,37.71
2023-03-27T07:52:14.724Z,38.01
2023-03-27T07:54:53.488Z,38.66
2023-03-27T07:57:24.648Z,39.86
2023-03-27T07:59:53.006Z,40.91
2023-03-27T08:02:32.071Z,39.70
2023-03-27T08:05:05.638Z,39.14
2023-03-27T08:07:40.987Z,38.20
2023-03-27T08:10:10.373Z,38.96
2023-03-27T08:12:52.923Z,40.92
2023-03-27T08:15:21.229Z,42.10
2023-03-27T08:17:54.128Z,43.31
2023-03-27T08:20:25.609Z,45.53
2023-03-27T08:22:54.422Z,46.36
2023-03-27T08:25:35.026Z,48.20
2023-03-27T08:28:07.533Z,49.01
2023-03-27T08:30:36.416Z,48.81
2023-03-27T08:33:05.331Z,48.76
2023-03-27T08:35:33.569Z,49.20
2023-03-27T08:38:03.890Z,50.05
2023-03-27T08:40:59.894Z,50.07
2023-03-27T08:43:45.221Z,50.79
2023-03-27T08:46:20.682Z,51.56
2023-03-27T08:49:11.127Z,52.06
2023-03-27T08:51:54.386Z,52.18
2023-03-27T08:54:26.263Z,52.42
2023-03-27T08:56:56.375Z,52.08
2023-03-27T08:59:28.557Z,52.06
2023-03-27T09:02:09.054Z,52.55
2023-03-27T09:04:57.188Z,52.24
2023-03-27T09:07:32.909Z,52.57
2023-03-27T09:10:45.353Z,52.90
2023-03-27T09:13:58.287Z,53.35
2023-03-27T09:16:35.674Z,53.15
2023-03-27T09:19:25.037Z,52.66
2023-03-27T09:22:18.996Z,53.77
2023-03-27T09:25:24.436Z,53.54
2023-03-27T09:28:21.390Z,52.02
2023-03-27T09:31:23.624Z,51.81
2023-03-27T09:33:52.755Z,51.38
2023-03-27T09:36:22.137Z,50.74
2023-03-27T09:38:58.858Z,52.05
2023-03-27T09:41:34.732Z,52.16
2023-03-27T09:44:42.817Z,51.81
2023-03-27T09:47:17.207Z,51.06
2023-03-27T09:49:56.630Z,51.77
2023-03-27T09:52:41.969Z,50.47
2023-03-27T09:55:50.857Z,50.79
2023-03-27T09:58:28.119Z,50.61
2023-03-27T10:01:26.708Z,50.39
2023-03-27T10:04:00.153Z,49.28
2023-03-27T10:06:39.244Z,49.09
2023-03-27T10:09:27.183Z,48.91
2023-03-27T10:12:10.278Z,49.69
2023-03-27T10:14:45.188Z,50.10
2023-03-27T10:17:26.921Z,50.69
2023-03-27T10:20:11.489Z,50.23
2023-03-27T10:22:43.137Z,50.87
2023-03-27T10:25:19.452Z,50.71
2023-03-27T10:28:11.103Z,51.03
2023-03-27T10:31:26.906Z,51.05
2023-03-27T10:34:38.343Z,51.42
2023-03-27T10:37:41.379Z,51.39
2023-03-27T10:40:37.993Z,51.39
2023-03-27T10:43:37.292Z,51.13
2023-03-27T10:46:11.470Z,50.53
2023-03-27T10:49:04.353Z,49.77
2023-03-27T10:51:46.605Z,49.51
2023-03-27T10:54:33.700Z,49.04
2023-03-27T10:57:12.886Z,49.02
2023-03-27T11:00:00.848Z,48.44
2023-03-27T11:02:45.766Z,48.46
2023-03-27T11:05:28.111Z,47.15
2023-03-27T11:08:19.526Z,47.54
2023-03-27T11:10:49.703Z,47.18
2023-03-27T11:13:33.675Z,46.98
2023-03-27T11:16:48.920Z,47.78
2023-03-27T11:19:43.263Z,47.82
2023-03-27T11:22:42.460Z,48.08
2023-03-27T11:25:34.410Z,47.52
2023-03-27T11:28:18.916Z,48.14
2023-03-27T11:30:53.282Z,47.41
2023-03-27T11:33:32.840Z,49.24
2023-03-27T11:36:06.636Z,52.02
2023-03-27T11:39:06.716Z,55.26
2023-03-27T11:41:36.180Z,58.53
2023-03-27T11:44:04.408Z,61.48
2023-03-27T11:47:32.813Z,64.24
2023-03-27T11:50:08.339Z,64.65
2023-03-27T11:52:56.708Z,63.50
2023-03-27T11:56:01.022Z,65.97
2023-03-27T11:58:39.614Z,68.14
2023-03-27T12:01:21.899Z,69.88
2023-03-27T12:04:11.507Z,69.30
2023-03-27T12:07:36.071Z,68.02
2023-03-27T12:10:17.010Z,69.54
2023-03-27T12:13:41.360Z,71.95
2023-03-27T12:16:33.766Z,69.94
2023-03-27T12:19:39.014Z,69.89
2023-03-27T12:22:28.293Z,72.42
2023-03-27T12:25:27.543Z,73.41
2023-03-27T12:28:35.312Z,75.02
2023-03-27T12:31:42.123Z,76.14
2023-03-27T12:34:50.542Z,76.50
2023-03-27T12:37:31.231Z,77.14
2023-03-27T12:40:01.943Z,77.58
2023-03-27T12:42:55.045Z,75.23
2023-03-27T12:45:28.251Z,77.47
2023-03-27T12:48:12.618Z,76.25
2023-03-27T12:50:44.319Z,76.41
2023-03-27T12:53:31.148Z,74.71
2023-03-27T12:56:17.356Z,74.49
2023-03-27T12:58:52.649Z,74.62
2023-03-27T13:01:52.053Z,75.39
2023-03-27T13:04:51.336Z,75.98
2023-03-27T13:07:43.796Z,76.16
2023-03-27T13:10:30.332Z,76.88
2023-03-27T13:13:35.824Z,77.36
2023-03-27T13:16:42.141Z,77.59
2023-03-27T13:19:23.374Z,80.61
2023-03-27T13:22:39.779Z,80.71
2023-03-27T13:25:31.775Z,81.10
2023-03-27T13:28:38.503Z,82.18
2023-03-27T13:31:44.811Z,82.80
2023-03-27T13:34:35.154Z,80.19
2023-03-27T13:37:09.936Z,79.66
2023-03-27T13:40:20.674Z,80.04
2023-03-27T13:43:21.856Z,78.21
2023-03-27T13:45:59.178Z,77.92
2023-03-27T13:49:04.996Z,77.47
2023-03-27T13:52:11.351Z,76.04
2023-03-27T13:54:46.645Z,77.33
2023-03-27T13:57:46.926Z,77.13
2023-03-27T14:00:54.900Z,75.12
2023-03-27T14:03:49.023Z,74.58
2023-03-27T14:06:28.752Z,72.52
2023-03-27T14:09:27.440Z,73.90
2023-03-27T14:12:43.599Z,72.77
2023-03-27T14:15:53.909Z,73.96
2023-03-27T14:18:58.669Z,70.23
2023-03-27T14:21:38.359Z,72.25
2023-03-27T14:24:40.841Z,71.00
2023-03-27T14:27:21.752Z,73.03
2023-03-27T14:30:07.897Z,75.41
2023-03-27T14:32:38.869Z,72.78
2023-03-27T14:35:29.445Z,75.00
2023-03-27T14:38:25.157Z,73.18
2023-03-27T14:41:02.544Z,73.97
2023-03-27T14:43:53.543Z,74.70
2023-03-27T14:46:24.654Z,75.15
2023-03-27T14:48:58.557Z,75.53
2023-03-27T14:51:37.582Z,71.72
2023-03-27T14:54:19.906Z,70.18
2023-03-27T14:56:52.274Z,71.54
2023-03-27T14:59:44.402Z,70.15
2023-03-27T15:02:19.467Z,71.90
2023-03-27T15:04:48.737Z,71.41
2023-03-27T15:07:28.981Z,71.15
2023-03-27T15:10:31.982Z,69.91
2023-03-27T15:13:36.914Z,66.59
2023-03-27T15:16:14.736Z,66.34
2023-03-27T15:18:45.611Z,66.82
2023-03-27T15:21:21.011Z,68.39
2023-03-27T15:24:20.460Z,72.28
2023-03-27T15:26:51.252Z,71.40
2023-03-27T15:29:43.019Z,72.08
2023-03-27T15:32:15.225Z,72.32
2023-03-27T15:34:47.997Z,73.69
2023-03-27T15:37:23.628Z,72.07
2023-03-27T15:40:16.213Z,71.45
2023-03-27T15:42:54.644Z,72.10
2023-03-27T15:45:35.127Z,73.30
2023-03-27T15:48:07.071Z,73.72
2023-03-27T15:50:35.549Z,73.61
2023-03-27T15:53:04.021Z,73.84
2023-03-27T15:55:37.880Z,73.23
2023-03-27T15:58:21.496Z,75.63
2023-03-27T16:00:52.939Z,75.49
2023-03-27T16:03:26.553Z,76.47
2023-03-27T16:05:57.753Z,76.64
2023-03-27T16:08:32.136Z,76.43
2023-03-27T16:11:01.426Z,76.38
2023-03-27T16:13:37.533Z,76.86
2023-03-27T16:16:23.341Z,77.32
2023-03-27T16:18:52.226Z,75.13
2023-03-27T16:21:26.979Z,75.70
2023-03-27T16:23:55.996Z,75.44
2023-03-27T16:26:28.020Z,75.83
2023-03-27T16:29:00.203Z,75.16
2023-03-27T16:31:29.072Z,76.38
2023-03-27T16:33:58.637Z,75.83
2023-03-27T16:36:33.360Z,76.12
2023-03-27T16:39:02.068Z,77.46
2023-03-27T16:41:30.522Z,78.18
2023-03-27T16:43:59.011Z,78.06
2023-03-27T16:46:29.426Z,77.97
2023-03-27T16:48:58.355Z,78.37
2023-03-27T16:51:29.223Z,79.70
2023-03-27T16:53:57.752Z,79.50
2023-03-27T16:56:26.582Z,78.07
2023-03-27T16:58:55.130Z,78.90
2023-03-27T17:01:26.385Z,78.28
2023-03-27T17:03:54.852Z,77.50
2023-03-27T17:06:23.379Z,77.16
2023-03-27T17:08:55.861Z,79.27
2023-03-27T17:11:24.554Z,78.73
2023-03-27T17:13:53.097Z,78.19
2023-03-27T17:16:21.986Z,78.90
2023-03-27T17:18:52.265Z,79.68
2023-03-27T17:21:20.622Z,79.09
2023-03-27T17:23:49.819Z,79.09
2023-03-27T17:26:30.022Z,79.64
2023-03-27T17:28:58.584Z,79.52
2023-03-27T17:31:30.241Z,78.92
2023-03-27T17:34:00.556Z,79.90
2023-03-27T17:36:41.207Z,79.96
2023-03-27T17:39:12.051Z,79.85
2023-03-27T17:41:40.465Z,80.39
2023-03-27T17:44:15.024Z,80.57
2023-03-27T17:46:43.755Z,80.07
2023-03-27T17:49:12.388Z,80.28
2023-03-27T17:51:41.367Z,80.99
2023-03-27T17:54:09.706Z,81.21
2023-03-27T17:56:38.124Z,80.98
2023-03-27T17:59:06.469Z,81.02
2023-03-27T18:01:34.916Z,81.83
2023-03-27T18:04:03.957Z,80.96
2023-03-27T18:06:32.536Z,81.79
2023-03-27T18:09:01.182Z,81.28
2023-03-27T18:11:29.926Z,80.60
2023-03-27T18:13:58.330Z,80.19
2023-03-27T18:16:27.309Z,79.70
2023-03-27T18:18:58.522Z,80.02
2023-03-27T18:21:27.631Z,80.23
2023-03-27T18:23:59.912Z,80.27
2023-03-27T18:26:28.529Z,80.83
2023-03-27T18:28:57.989Z,80.88
2023-03-27T18:31:26.914Z,81.51
2023-03-27T18:33:55.589Z,81.55
2023-03-27T18:36:24.203Z,81.08
2023-03-27T18:38:52.586Z,80.85
2023-03-27T18:41:21.172Z,80.81
2023-03-27T18:43:49.729Z,80.50
2023-03-27T18:46:20.755Z,80.46
2023-03-27T18:48:50.280Z,81.06
2023-03-27T18:51:19.229Z,81.72
2023-03-27T18:53:49.713Z,79.82
2023-03-27T18:56:19.040Z,79.70
2023-03-27T18:58:47.595Z,79.29
2023-03-27T19:01:16.468Z,79.61
2023-03-27T19:03:45.071Z,79.28
2023-03-27T19:06:13.858Z,78.83
2023-03-27T19:08:45.728Z,77.49
2023-03-27T19:11:14.188Z,77.55
2023-03-27T19:14:12.515Z,77.18
2023-03-27T19:16:59.194Z,78.54
2023-03-27T19:19:46.604Z,78.86
2023-03-27T19:22:32.678Z,79.89
2023-03-27T19:25:22.628Z,79.96
2023-03-27T19:27:51.269Z,80.19
2023-03-27T19:30:19.859Z,79.90
2023-03-27T19:32:48.728Z,80.21
2023-03-27T19:35:17.330Z,78.66
2023-03-27T19:37:46.263Z,79.04
2023-03-27T19:40:15.714Z,79.24
2023-03-27T19:42:44.343Z,79.53
2023-03-27T19:45:12.925Z,79.56
2023-03-27T19:47:41.719Z,79.63
2023-03-27T19:50:10.343Z,79.52
2023-03-27T19:53:08.649Z,79.12
2023-03-27T19:55:38.184Z,78.90
2023-03-27T19:58:06.709Z,78.20
2023-03-27T20:00:40.086Z,78.57
2023-03-27T20:03:10.774Z,79.30
2023-03-27T20:05:40.722Z,80.00
2023-03-27T20:08:08.729Z,79.73
2023-03-27T20:10:36.701Z,80.46
2023-03-27T20:13:04.816Z,81.36
2023-03-27T20:15:34.513Z,81.37
2023-03-27T20:18:03.917Z,82.02
2023-03-27T20:20:33.555Z,82.30
2023-03-27T20:23:03.318Z,82.09
2023-03-27T20:25:33.670Z,82.27
2023-03-27T20:28:03.334Z,81.40
2023-03-27T20:30:34.614Z,82.59
2023-03-27T20:33:03.491Z,82.90
2023-03-27T20:35:33.492Z,83.64
2023-03-27T20:38:06.052Z,82.98
2023-03-27T20:40:52.722Z,83.01
2023-03-27T20:43:27.510Z,84.24
2023-03-27T20:45:59.140Z,84.11
2023-03-27T20:48:41.078Z,84.19
2023-03-27T20:51:14.978Z,84.12
2023-03-27T20:53:45.024Z,84.66
2023-03-27T20:56:14.473Z,84.42
2023-03-27T20:58:42.834Z,84.35
2023-03-27T21:01:11.582Z,83.40
2023-03-27T21:03:42.915Z,83.40
2023-03-27T21:06:15.000Z,84.20
2023-03-27T21:08:43.377Z,85.34
2023-03-27T21:11:11.893Z,85.72
2023-03-27T21:13:40.159Z,86.04
2023-03-27T21:16:09.326Z,86.31
2023-03-27T21:18:37.282Z,86.84
2023-03-27T21:21:05.588Z,86.79
2023-03-27T21:23:34.840Z,87.12
2023-03-27T21:26:02.618Z,87.34
2023-03-27T21:28:30.689Z,87.29
2023-03-27T21:30:59.798Z,88.01
2023-03-27T21:33:27.697Z,87.62
2023-03-27T21:35:55.664Z,88.01
2023-03-27T21:38:23.754Z,88.41
2023-03-27T21:40:51.625Z,86.76
2023-03-27T21:43:21.487Z,85.94
2023-03-27T21:45:50.507Z,86.54
2023-03-27T21:48:18.820Z,85.89
2023-03-27T21:50:47.690Z,86.27
2023-03-27T21:53:17.159Z,86.85
2023-03-27T21:55:46.951Z,87.34
2023-03-27T21:58:15.001Z,87.46
2023-03-27T22:00:45.843Z,87.83
2023-03-27T22:03:13.884Z,88.03
2023-03-27T22:05:42.066Z,87.65
2023-03-27T22:08:10.327Z,87.66
2023-03-27T22:10:38.475Z,89.32
2023-03-27T22:13:06.844Z,88.50
2023-03-27T22:15:34.997Z,88.71
2023-03-27T22:18:03.027Z,88.63
2023-03-27T22:20:30.999Z,88.86
2023-03-27T22:22:59.161Z,89.67
2023-03-27T22:25:27.110Z,89.78
2023-03-27T22:27:55.042Z,89.33
2023-03-27T22:30:23.168Z,89.81
2023-03-27T22:32:51.127Z,90.63
2023-03-27T22:35:19.454Z,89.97
2023-03-27T22:37:47.470Z,90.45
2023-03-27T22:40:15.687Z,90.50
2023-03-27T22:42:43.834Z,90.81
2023-03-27T22:45:11.966Z,90.60
2023-03-27T22:47:40.846Z,90.43
2023-03-27T22:50:09.134Z,91.44
2023-03-27T22:52:37.193Z,91.56
2023-03-27T22:55:05.501Z,90.44
2023-03-27T22:57:36.248Z,91.06
2023-03-27T23:00:07.061Z,90.58
2023-03-27T23:02:35.821Z,91.53
2023-03-27T23:05:04.545Z,91.20
2023-03-27T23:07:32.839Z,90.95
2023-03-27T23:10:00.989Z,91.19
2023-03-27T23:12:28.810Z,91.04
2023-03-27T23:14:56.843Z,90.22
2023-03-27T23:17:24.851Z,90.50
2023-03-27T23:19:52.770Z,89.26
2023-03-27T23:22:20.795Z,90.27
2023-03-27T23:24:48.674Z,90.48
2023-03-27T23:27:16.644Z,90.50
2023-03-27T23:29:44.621Z,90.49
2023-03-27T23:32:12.646Z,89.70
2023-03-27T23:34:41.083Z,88.72
2023-03-27T23:37:08.954Z,87.93
2023-03-27T23:39:36.873Z,86.76
2023-03-27T23:42:04.886Z,86.99
2023-03-27T23:44:32.881Z,87.07
2023-03-27T23:47:00.854Z,86.76
2023-03-27T23:49:28.715Z,88.33
2023-03-27T23:51:56.723Z,86.76
2023-03-27T23:54:24.697Z,86.64
2023-03-27T23:56:52.736Z,85.65
2023-03-27T23:59:23.502Z,84.20
